createdAt,value
2023-10-29T00:00:37.668Z,14.43
2023-10-29T00:03:07.630Z,14.51
2023-10-29T00:05:35.444Z,14.51
2023-10-29T00:08:02.991Z,14.37
2023-10-29T00:10:30.562Z,14.47
2023-10-29T00:12:58.250Z,14.43
2023-10-29T00:15:26.039Z,14.38
2023-10-29T00:17:53.705Z,13.86
2023-10-29T00:20:21.599Z,14.13
2023-10-29T00:22:49.202Z,12.95
2023-10-29T00:25:16.724Z,13.51
2023-10-29T00:27:44.257Z,13.88
2023-10-29T00:30:12.192Z,13.32
2023-10-29T00:32:40.180Z,13.80
2023-10-29T00:35:08.656Z,13.97
2023-10-29T00:37:36.657Z,13.40
2023-10-29T00:40:05.514Z,13.93
2023-10-29T00:42:33.868Z,13.57
2023-10-29T00:45:01.544Z,13.70
2023-10-29T00:47:30.094Z,13.75
2023-10-29T00:49:57.715Z,13.29
2023-10-29T00:52:25.417Z,13.59
2023-10-29T00:54:53.106Z,13.67
2023-10-29T00:57:21.490Z,13.77
2023-10-29T00:59:49.165Z,13.73
2023-10-29T01:02:16.958Z,13.54
2023-10-29T01:04:46.504Z,13.16
2023-10-29T01:07:14.318Z,12.93
2023-10-29T01:09:43.277Z,13.32
2023-10-29T01:12:21.042Z,13.40
2023-10-29T01:14:48.824Z,13.14
2023-10-29T01:17:17.515Z,12.44
2023-10-29T01:19:45.057Z,12.73
2023-10-29T01:22:12.646Z,13.13
2023-10-29T01:24:41.032Z,13.11
2023-10-29T01:27:09.259Z,13.40
2023-10-29T01:29:37.492Z,13.43
2023-10-29T01:32:05.655Z,12.98
2023-10-29T01:34:33.369Z,13.34
2023-10-29T01:37:00.977Z,13.34
2023-10-29T01:39:28.620Z,13.39
2023-10-29T01:41:57.538Z,13.48
2023-10-29T01:44:25.178Z,13.40
2023-10-29T01:46:52.780Z,13.61
2023-10-29T01:49:20.368Z,13.04
2023-10-29T01:51:47.858Z,13.20
2023-10-29T01:54:15.629Z,12.65
2023-10-29T01:56:43.642Z,13.20
2023-10-29T01:59:14.975Z,13.23
2023-10-29T02:01:43.300Z,13.47
2023-10-29T02:04:11.811Z,13.56
2023-10-29T02:06:42.465Z,13.48
2023-10-29T02:09:10.960Z,13.14
2023-10-29T02:11:39.272Z,13.34
2023-10-29T02:14:07.617Z,13.33
2023-10-29T02:16:35.195Z,13.30
2023-10-29T02:19:02.765Z,13.37
2023-10-29T02:21:30.685Z,13.43
2023-10-29T02:24:02.355Z,13.35
2023-10-29T02:26:30.168Z,13.12
2023-10-29T02:28:57.937Z,13.42
2023-10-29T02:31:25.535Z,13.11
2023-10-29T02:33:53.288Z,12.88
2023-10-29T02:36:20.845Z,13.34
2023-10-29T02:38:48.451Z,13.31
2023-10-29T02:41:16.030Z,12.99
2023-10-29T02:43:43.581Z,12.84
2023-10-29T02:46:12.065Z,12.93
2023-10-29T02:48:39.842Z,13.12
2023-10-29T02:51:14.078Z,12.87
2023-10-29T02:53:41.755Z,12.88
2023-10-29T02:56:09.460Z,12.71
2023-10-29T02:58:36.986Z,12.67
2023-10-29T03:01:05.927Z,12.77
2023-10-29T03:03:33.852Z,12.90
2023-10-29T03:06:09.297Z,13.26
2023-10-29T03:08:37.530Z,13.32
2023-10-29T03:11:05.145Z,13.27
2023-10-29T03:13:32.972Z,12.76
2023-10-29T03:16:00.670Z,12.39
2023-10-29T03:18:30.590Z,12.97
2023-10-29T03:20:58.374Z,13.03
2023-10-29T03:23:26.079Z,12.46
2023-10-29T03:26:00.411Z,11.30
2023-10-29T03:28:27.982Z,12.13
2023-10-29T03:30:55.520Z,11.57
2023-10-29T03:33:23.317Z,11.27
2023-10-29T03:35:51.005Z,11.66
2023-10-29T03:38:19.635Z,11.74
2023-10-29T03:40:47.179Z,10.71
2023-10-29T03:43:14.697Z,11.86
2023-10-29T03:45:42.260Z,12.27
2023-10-29T03:48:09.884Z,12.17
2023-10-29T03:50:37.566Z,12.42
2023-10-29T03:53:05.204Z,12.63
2023-10-29T03:55:34.123Z,12.72
2023-10-29T03:58:01.778Z,12.98
2023-10-29T04:00:30.246Z,13.01
2023-10-29T04:02:59.419Z,12.80
2023-10-29T04:05:28.156Z,12.76
2023-10-29T04:07:55.685Z,12.85
2023-10-29T04:10:23.229Z,12.82
2023-10-29T04:12:50.742Z,12.95
2023-10-29T04:15:18.378Z,12.85
2023-10-29T04:17:46.041Z,13.04
2023-10-29T04:20:13.628Z,12.94
2023-10-29T04:22:43.412Z,12.91
2023-10-29T04:25:10.971Z,13.06
2023-10-29T04:27:38.475Z,13.00
2023-10-29T04:30:06.833Z,12.88
2023-10-29T04:32:34.456Z,12.80
2023-10-29T04:35:02.029Z,12.07
2023-10-29T04:37:29.569Z,12.46
2023-10-29T04:39:57.612Z,12.50
2023-10-29T04:42:25.238Z,12.61
2023-10-29T04:44:52.973Z,12.48
2023-10-29T04:47:20.500Z,12.56
2023-10-29T04:49:48.011Z,12.66
2023-10-29T04:52:15.602Z,12.34
2023-10-29T04:54:43.780Z,12.56
2023-10-29T04:57:11.310Z,12.51
2023-10-29T04:59:39.160Z,12.31
2023-10-29T05:02:06.711Z,11.92
2023-10-29T05:04:34.492Z,10.88
2023-10-29T05:07:01.999Z,11.41
2023-10-29T05:09:29.486Z,11.38
2023-10-29T05:11:57.020Z,11.86
2023-10-29T05:14:24.592Z,11.97
2023-10-29T05:16:53.333Z,12.07
2023-10-29T05:19:21.520Z,12.13
2023-10-29T05:21:50.286Z,12.17
2023-10-29T05:24:18.054Z,12.04
2023-10-29T05:26:45.737Z,12.07
2023-10-29T05:29:13.396Z,11.91
2023-10-29T05:31:40.969Z,11.61
2023-10-29T05:34:08.656Z,11.83
2023-10-29T05:36:36.372Z,12.09
2023-10-29T05:39:06.310Z,12.09
2023-10-29T05:41:34.024Z,11.70
2023-10-29T05:44:01.728Z,11.35
2023-10-29T05:46:29.353Z,11.68
2023-10-29T05:48:57.154Z,11.93
2023-10-29T05:51:25.151Z,12.00
2023-10-29T05:53:52.885Z,12.21
2023-10-29T05:56:20.449Z,12.50
2023-10-29T05:58:49.243Z,12.64
2023-10-29T06:01:16.843Z,12.72
2023-10-29T06:03:44.524Z,12.72
2023-10-29T06:06:12.476Z,12.75
2023-10-29T06:08:40.130Z,13.15
2023-10-29T06:11:07.707Z,13.16
2023-10-29T06:13:37.818Z,13.03
2023-10-29T06:16:09.671Z,12.86
2023-10-29T06:18:37.292Z,12.70
2023-10-29T06:21:05.170Z,12.55
2023-10-29T06:23:33.014Z,12.50
2023-10-29T06:26:00.613Z,12.43
2023-10-29T06:28:28.175Z,13.63
2023-10-29T06:30:55.764Z,13.84
2023-10-29T06:33:23.596Z,13.83
2023-10-29T06:35:51.817Z,13.98
2023-10-29T06:38:19.656Z,14.60
2023-10-29T06:40:47.221Z,14.91
2023-10-29T06:43:14.813Z,15.21
2023-10-29T06:45:42.566Z,15.38
2023-10-29T06:48:10.217Z,15.59
2023-10-29T06:50:38.049Z,15.82
2023-10-29T06:53:06.966Z,16.06
2023-10-29T06:55:36.881Z,16.88
2023-10-29T06:58:05.145Z,17.66
2023-10-29T07:00:32.953Z,18.23
2023-10-29T07:03:00.559Z,19.02
2023-10-29T07:05:28.934Z,20.10
2023-10-29T07:07:56.573Z,20.54
2023-10-29T07:10:24.454Z,21.29
2023-10-29T07:12:54.210Z,22.19
2023-10-29T07:15:21.771Z,21.16
2023-10-29T07:17:49.373Z,22.28
2023-10-29T07:20:17.035Z,23.37
2023-10-29T07:22:47.713Z,23.77
2023-10-29T07:25:15.408Z,23.59
2023-10-29T07:27:42.905Z,21.23
2023-10-29T07:30:10.788Z,21.51
2023-10-29T07:32:39.125Z,24.86
2023-10-29T07:35:07.351Z,24.65
2023-10-29T07:37:34.957Z,23.58
2023-10-29T07:40:03.389Z,24.61
2023-10-29T07:42:30.973Z,24.65
2023-10-29T07:44:59.964Z,26.25
2023-10-29T07:47:27.718Z,27.50
2023-10-29T07:49:58.238Z,28.22
2023-10-29T07:52:25.734Z,24.44
2023-10-29T07:54:53.425Z,24.86
2023-10-29T07:57:22.172Z,24.88
2023-10-29T07:59:50.170Z,24.84
2023-10-29T08:02:17.788Z,24.96
2023-10-29T08:04:45.637Z,24.95
2023-10-29T08:07:13.195Z,25.69
2023-10-29T08:09:42.030Z,25.82
2023-10-29T08:12:10.022Z,25.16
2023-10-29T08:14:37.590Z,26.50
2023-10-29T08:17:05.343Z,26.26
2023-10-29T08:19:32.921Z,26.60
2023-10-29T08:22:00.603Z,27.63
2023-10-29T08:24:28.268Z,27.95
2023-10-29T08:26:55.774Z,27.82
2023-10-29T08:29:23.624Z,28.36
2023-10-29T08:31:51.215Z,28.34
2023-10-29T08:34:19.060Z,27.34
2023-10-29T08:36:46.712Z,27.77
2023-10-29T08:39:15.358Z,28.81
2023-10-29T08:41:42.903Z,29.26
2023-10-29T08:44:10.551Z,30.68
2023-10-29T08:46:38.087Z,30.89
2023-10-29T08:49:05.601Z,32.29
2023-10-29T08:51:33.217Z,31.70
2023-10-29T08:54:03.750Z,29.96
2023-10-29T08:56:35.191Z,32.93
2023-10-29T08:59:05.292Z,30.98
2023-10-29T09:01:34.520Z,31.85
2023-10-29T09:04:02.715Z,31.23
2023-10-29T09:06:30.454Z,33.55
2023-10-29T09:08:59.135Z,32.34
2023-10-29T09:11:26.928Z,31.86
2023-10-29T09:13:55.146Z,28.98
2023-10-29T09:16:22.831Z,29.04
2023-10-29T09:18:51.579Z,28.97
2023-10-29T09:21:19.286Z,29.46
2023-10-29T09:23:47.263Z,30.88
2023-10-29T09:26:16.719Z,30.16
2023-10-29T09:28:45.445Z,30.78
2023-10-29T09:31:19.520Z,33.73
2023-10-29T09:33:48.772Z,32.95
2023-10-29T09:36:17.733Z,32.33
2023-10-29T09:38:45.427Z,28.97
2023-10-29T09:41:16.852Z,28.32
2023-10-29T09:43:45.066Z,28.07
2023-10-29T09:46:12.877Z,30.57
2023-10-29T09:48:43.417Z,31.16
2023-10-29T09:51:11.195Z,30.49
2023-10-29T09:53:43.429Z,30.16
2023-10-29T09:56:11.907Z,31.24
2023-10-29T09:58:39.972Z,31.07
2023-10-29T10:01:08.837Z,32.42
2023-10-29T10:03:37.608Z,30.98
2023-10-29T10:06:07.266Z,32.19
2023-10-29T10:08:34.880Z,31.51
2023-10-29T10:11:03.376Z,32.52
2023-10-29T10:13:42.609Z,32.64
2023-10-29T10:16:16.111Z,35.53
2023-10-29T10:18:52.776Z,35.51
2023-10-29T10:21:23.107Z,34.56
2023-10-29T10:23:52.820Z,34.86
2023-10-29T10:26:40.194Z,37.09
2023-10-29T10:29:09.572Z,35.76
2023-10-29T10:31:37.335Z,34.27
2023-10-29T10:34:19.174Z,32.18
2023-10-29T10:36:51.790Z,34.12
2023-10-29T10:39:24.313Z,32.33
2023-10-29T10:41:51.914Z,32.25
2023-10-29T10:44:20.776Z,32.18
2023-10-29T10:46:49.045Z,32.99
2023-10-29T10:49:17.760Z,32.18
2023-10-29T10:51:47.205Z,33.17
2023-10-29T10:54:19.004Z,34.13
2023-10-29T10:56:47.499Z,34.37
2023-10-29T10:59:15.617Z,33.27
2023-10-29T11:01:43.310Z,32.84
2023-10-29T11:04:11.543Z,33.51
2023-10-29T11:06:43.817Z,34.83
2023-10-29T11:09:14.440Z,32.79
2023-10-29T11:11:50.940Z,31.53
2023-10-29T11:14:19.828Z,30.70
2023-10-29T11:16:52.781Z,30.54
2023-10-29T11:19:47.046Z,32.80
2023-10-29T11:22:20.548Z,33.25
2023-10-29T11:25:13.077Z,30.68
2023-10-29T11:27:49.858Z,30.23
2023-10-29T11:30:19.589Z,29.60
2023-10-29T11:32:47.944Z,31.14
2023-10-29T11:35:15.650Z,29.29
2023-10-29T11:37:44.328Z,31.29
2023-10-29T11:40:27.076Z,30.81
2023-10-29T11:42:56.419Z,30.20
2023-10-29T11:45:35.661Z,31.05
2023-10-29T11:48:12.882Z,33.59
2023-10-29T11:50:41.883Z,33.89
2023-10-29T11:53:27.948Z,35.67
2023-10-29T11:55:58.694Z,35.02
2023-10-29T11:58:27.885Z,35.65
2023-10-29T12:00:56.064Z,36.03
2023-10-29T12:03:24.325Z,31.82
2023-10-29T12:05:56.409Z,29.79
2023-10-29T12:08:24.791Z,29.41
2023-10-29T12:10:56.719Z,32.15
2023-10-29T12:13:24.642Z,31.76
2023-10-29T12:15:58.222Z,32.36
2023-10-29T12:18:26.794Z,32.50
2023-10-29T12:21:05.413Z,31.54
2023-10-29T12:23:33.958Z,30.27
2023-10-29T12:26:02.613Z,30.98
2023-10-29T12:28:30.336Z,30.60
2023-10-29T12:30:59.227Z,29.70
2023-10-29T12:33:29.426Z,29.05
2023-10-29T12:36:00.749Z,29.86
2023-10-29T12:38:32.296Z,29.24
2023-10-29T12:41:07.156Z,31.92
2023-10-29T12:43:45.719Z,32.56
2023-10-29T12:46:14.462Z,31.88
2023-10-29T12:49:09.103Z,34.13
2023-10-29T12:51:42.697Z,32.76
2023-10-29T12:54:26.383Z,34.18
2023-10-29T12:57:00.373Z,32.95
2023-10-29T12:59:32.974Z,33.35
2023-10-29T13:02:07.695Z,34.38
2023-10-29T13:04:37.890Z,32.08
2023-10-29T13:07:08.902Z,30.79
2023-10-29T13:09:42.294Z,28.80
2023-10-29T13:12:11.999Z,29.74
2023-10-29T13:14:40.580Z,29.96
2023-10-29T13:17:08.754Z,33.54
2023-10-29T13:19:37.016Z,32.19
2023-10-29T13:22:06.053Z,28.89
2023-10-29T13:24:33.849Z,30.62
2023-10-29T13:27:03.152Z,31.50
2023-10-29T13:29:30.816Z,30.27
2023-10-29T13:31:59.779Z,30.44
2023-10-29T13:34:28.885Z,29.97
2023-10-29T13:36:56.401Z,30.63
2023-10-29T13:39:23.932Z,29.27
2023-10-29T13:41:51.519Z,29.03
2023-10-29T13:44:19.278Z,28.09
2023-10-29T13:46:47.028Z,27.12
2023-10-29T13:49:14.726Z,27.36
2023-10-29T13:51:44.653Z,27.04
2023-10-29T13:54:12.496Z,27.11
2023-10-29T13:56:41.199Z,27.21
2023-10-29T13:59:08.863Z,26.78
2023-10-29T14:01:36.553Z,26.84
2023-10-29T14:04:04.458Z,27.18
2023-10-29T14:06:32.981Z,26.90
2023-10-29T14:09:01.369Z,26.36
2023-10-29T14:11:28.988Z,26.43
2023-10-29T14:14:01.509Z,27.19
2023-10-29T14:16:37.288Z,28.03
2023-10-29T14:19:08.443Z,27.33
2023-10-29T14:21:36.430Z,26.55
2023-10-29T14:24:04.737Z,27.59
2023-10-29T14:26:32.365Z,28.23
2023-10-29T14:29:00.016Z,27.84
2023-10-29T14:31:27.640Z,27.38
2023-10-29T14:33:55.201Z,27.03
2023-10-29T14:36:24.539Z,26.84
2023-10-29T14:38:52.147Z,26.38
2023-10-29T14:41:19.766Z,26.16
2023-10-29T14:43:47.358Z,26.14
2023-10-29T14:46:14.935Z,26.13
2023-10-29T14:48:44.236Z,25.81
2023-10-29T14:51:15.182Z,26.05
2023-10-29T14:53:42.780Z,25.74
2023-10-29T14:56:10.379Z,25.64
2023-10-29T14:58:37.982Z,25.40
2023-10-29T15:01:08.920Z,24.93
2023-10-29T15:03:36.811Z,24.96
2023-10-29T15:06:09.721Z,25.10
2023-10-29T15:08:38.482Z,24.97
2023-10-29T15:11:06.513Z,25.59
2023-10-29T15:13:46.378Z,24.78
2023-10-29T15:16:17.313Z,24.64
2023-10-29T15:18:45.380Z,24.55
2023-10-29T15:21:18.971Z,24.52
2023-10-29T15:23:46.677Z,24.38
2023-10-29T15:26:15.784Z,24.52
2023-10-29T15:28:43.449Z,24.23
2023-10-29T15:31:11.692Z,24.50
2023-10-29T15:33:39.958Z,24.18
2023-10-29T15:36:09.810Z,24.09
2023-10-29T15:38:38.585Z,23.59
2023-10-29T15:41:08.184Z,23.83
2023-10-29T15:43:35.846Z,24.03
2023-10-29T15:46:06.700Z,24.17
2023-10-29T15:48:34.407Z,24.01
2023-10-29T15:51:02.248Z,23.61
2023-10-29T15:53:29.952Z,23.97
2023-10-29T15:55:59.460Z,23.95
2023-10-29T15:58:27.283Z,24.13
2023-10-29T16:00:55.170Z,23.79
2023-10-29T16:03:22.800Z,23.90
2023-10-29T16:05:50.692Z,24.16
2023-10-29T16:08:21.606Z,23.35
2023-10-29T16:10:49.470Z,22.99
2023-10-29T16:13:17.287Z,23.18
2023-10-29T16:15:48.164Z,23.23
2023-10-29T16:18:18.493Z,23.23
2023-10-29T16:20:48.690Z,23.37
2023-10-29T16:23:17.243Z,23.03
2023-10-29T16:25:44.991Z,23.13
2023-10-29T16:28:12.884Z,23.50
2023-10-29T16:30:41.353Z,23.02
2023-10-29T16:33:11.750Z,23.06
2023-10-29T16:35:41.745Z,23.25
2023-10-29T16:38:10.242Z,22.90
2023-10-29T16:40:42.404Z,22.80
2023-10-29T16:43:10.230Z,22.82
2023-10-29T16:45:38.685Z,22.45
2023-10-29T16:48:09.137Z,22.95
2023-10-29T16:50:52.366Z,23.10
2023-10-29T16:53:28.329Z,22.10
2023-10-29T16:56:03.787Z,22.69
2023-10-29T16:58:32.254Z,22.66
2023-10-29T17:01:00.439Z,22.62
2023-10-29T17:03:31.139Z,22.81
2023-10-29T17:05:58.881Z,22.81
2023-10-29T17:08:26.660Z,22.65
2023-10-29T17:11:00.448Z,22.96
2023-10-29T17:13:28.064Z,22.57
2023-10-29T17:16:00.763Z,22.69
2023-10-29T17:18:29.534Z,22.88
2023-10-29T17:21:00.647Z,22.49
2023-10-29T17:23:28.937Z,22.93
2023-10-29T17:25:57.766Z,22.75
2023-10-29T17:28:25.465Z,22.83
2023-10-29T17:30:53.071Z,23.02
2023-10-29T17:33:21.055Z,23.00
2023-10-29T17:35:48.864Z,22.90
2023-10-29T17:38:16.694Z,22.71
2023-10-29T17:40:44.519Z,22.15
2023-10-29T17:43:15.163Z,22.63
2023-10-29T17:45:44.818Z,22.71
2023-10-29T17:48:14.112Z,22.40
2023-10-29T17:50:42.946Z,21.86
2023-10-29T17:53:13.584Z,22.53
2023-10-29T17:55:41.681Z,22.21
2023-10-29T17:58:11.842Z,22.47
2023-10-29T18:00:39.594Z,22.59
2023-10-29T18:03:07.467Z,22.20
2023-10-29T18:05:36.409Z,22.69
2023-10-29T18:08:09.713Z,22.90
2023-10-29T18:10:37.801Z,22.62
2023-10-29T18:13:05.387Z,22.50
2023-10-29T18:15:32.990Z,22.42
2023-10-29T18:18:00.948Z,22.75
2023-10-29T18:20:28.708Z,21.91
2023-10-29T18:22:56.475Z,22.34
2023-10-29T18:25:26.662Z,22.40
2023-10-29T18:27:55.678Z,22.16
2023-10-29T18:30:28.124Z,21.89
2023-10-29T18:32:56.802Z,21.79
2023-10-29T18:35:24.756Z,22.23
2023-10-29T18:37:59.401Z,22.22
2023-10-29T18:40:27.982Z,22.13
2023-10-29T18:42:55.484Z,21.87
2023-10-29T18:45:23.457Z,22.07
2023-10-29T18:47:53.278Z,21.94
2023-10-29T18:50:22.052Z,21.71
2023-10-29T18:52:50.628Z,22.04
2023-10-29T18:55:19.349Z,22.25
2023-10-29T18:57:53.713Z,22.55
2023-10-29T19:00:21.467Z,22.03
2023-10-29T19:02:50.137Z,21.92
2023-10-29T19:05:20.972Z,22.05
2023-10-29T19:07:48.928Z,22.14
2023-10-29T19:10:21.537Z,21.85
2023-10-29T19:12:53.654Z,22.09
2023-10-29T19:15:22.271Z,21.62
2023-10-29T19:17:53.166Z,21.93
2023-10-29T19:21:35.666Z,22.28
2023-10-29T19:24:06.056Z,21.97
2023-10-29T19:26:33.660Z,21.69
2023-10-29T19:29:04.385Z,21.87
2023-10-29T19:31:31.942Z,22.03
2023-10-29T19:34:03.717Z,22.12
2023-10-29T19:36:31.556Z,21.81
2023-10-29T19:38:59.785Z,22.20
2023-10-29T19:41:28.246Z,22.05
2023-10-29T19:43:56.066Z,22.08
2023-10-29T19:46:24.019Z,21.83
2023-10-29T19:48:55.790Z,21.95
2023-10-29T19:51:26.395Z,22.74
2023-10-29T19:53:54.699Z,22.31
2023-10-29T19:56:23.645Z,22.38
2023-10-29T19:58:51.313Z,22.56
2023-10-29T20:01:21.188Z,22.19
2023-10-29T20:03:49.828Z,22.42
2023-10-29T20:06:17.886Z,22.54
2023-10-29T20:08:45.691Z,22.24
2023-10-29T20:11:15.415Z,22.21
2023-10-29T20:13:48.719Z,22.13
2023-10-29T20:16:19.798Z,21.43
2023-10-29T20:18:47.904Z,22.12
2023-10-29T20:21:20.358Z,21.76
2023-10-29T20:23:48.366Z,21.73
2023-10-29T20:26:20.875Z,20.99
2023-10-29T20:28:52.884Z,21.39
2023-10-29T20:31:23.993Z,21.35
2023-10-29T20:33:53.390Z,21.31
2023-10-29T20:36:22.606Z,21.87
2023-10-29T20:38:50.119Z,22.53
2023-10-29T20:41:17.600Z,21.99
2023-10-29T20:43:45.387Z,21.95
2023-10-29T20:46:13.446Z,22.68
2023-10-29T20:48:41.281Z,22.51
2023-10-29T20:51:09.112Z,22.23
2023-10-29T20:53:37.041Z,22.17
2023-10-29T20:56:05.881Z,22.17
2023-10-29T20:58:33.898Z,21.71
2023-10-29T21:01:05.519Z,22.46
2023-10-29T21:03:34.105Z,21.75
2023-10-29T21:06:02.271Z,22.06
2023-10-29T21:08:29.906Z,21.89
2023-10-29T21:11:14.483Z,22.05
2023-10-29T21:13:42.534Z,22.07
2023-10-29T21:16:10.466Z,21.71
2023-10-29T21:18:38.239Z,22.07
2023-10-29T21:21:06.190Z,21.81
2023-10-29T21:23:34.122Z,21.99
2023-10-29T21:26:01.887Z,22.14
2023-10-29T21:28:29.701Z,21.85
2023-10-29T21:30:57.400Z,21.88
2023-10-29T21:33:25.166Z,21.31
2023-10-29T21:35:52.773Z,21.21
2023-10-29T21:38:20.591Z,21.13
2023-10-29T21:40:48.182Z,21.95
2023-10-29T21:43:15.818Z,21.69
2023-10-29T21:45:43.464Z,21.23
2023-10-29T21:48:11.550Z,20.81
2023-10-29T21:50:41.945Z,21.50
2023-10-29T21:53:10.385Z,21.79
2023-10-29T21:55:38.573Z,21.96
2023-10-29T21:58:09.978Z,21.67
2023-10-29T22:00:37.938Z,21.25
2023-10-29T22:03:06.150Z,21.43
2023-10-29T22:05:34.266Z,21.18
2023-10-29T22:08:02.169Z,21.27
2023-10-29T22:10:29.756Z,21.62
2023-10-29T22:12:57.338Z,21.60
2023-10-29T22:15:29.317Z,21.35
2023-10-29T22:17:57.011Z,21.59
2023-10-29T22:20:25.407Z,21.42
2023-10-29T22:22:52.975Z,21.42
2023-10-29T22:25:20.602Z,21.74
2023-10-29T22:27:48.134Z,21.29
2023-10-29T22:30:15.823Z,21.21
2023-10-29T22:32:43.956Z,21.59
2023-10-29T22:35:11.662Z,21.77
2023-10-29T22:37:39.504Z,21.62
2023-10-29T22:40:07.647Z,20.58
2023-10-29T22:42:35.320Z,20.87
2023-10-29T22:45:02.980Z,21.21
2023-10-29T22:47:30.614Z,21.44
2023-10-29T22:49:58.204Z,21.13
2023-10-29T22:52:25.742Z,21.14
2023-10-29T22:54:53.487Z,20.54
2023-10-29T22:57:21.078Z,21.20
2023-10-29T22:59:51.668Z,21.15
2023-10-29T23:02:19.956Z,20.77
2023-10-29T23:04:47.657Z,21.76
2023-10-29T23:07:15.197Z,21.61
2023-10-29T23:09:42.853Z,21.51
2023-10-29T23:12:10.494Z,21.21
2023-10-29T23:14:38.063Z,21.47
2023-10-29T23:17:05.688Z,21.59
2023-10-29T23:19:33.244Z,21.20
2023-10-29T23:22:00.764Z,20.67
2023-10-29T23:24:28.441Z,20.33
2023-10-29T23:26:56.022Z,20.27
2023-10-29T23:29:23.910Z,19.88
2023-10-29T23:31:51.498Z,19.46
2023-10-29T23:34:19.079Z,20.15
2023-10-29T23:36:46.656Z,19.87
2023-10-29T23:39:14.334Z,19.83
2023-10-29T23:41:41.871Z,19.74
2023-10-29T23:44:09.336Z,19.48
2023-10-29T23:46:36.889Z,19.97
2023-10-29T23:49:04.990Z,20.15
2023-10-29T23:51:32.568Z,19.97
2023-10-29T23:54:00.231Z,20.08
2023-10-29T23:56:27.802Z,19.89
2023-10-29T23:58:55.345Z,20.19
